Time;durP1;ratioP1;P1;durP2;ratioP2;P2;SDS_P1;SDS_P2;PMS_P1;PMS_P2;Temp;Humidity;BMP_temperature;BMP_pressure;BME280_temperature;BME280_humidity;BME280_pressure;Samples;Min_cycle;Max_cycle;Signal;HPM_P1;HPM_P2
2023/03/13 00:01:29;;;;;;;15.30;4.10;;;10.20;99.90;;;-144.05;61.56;56972.03;5050944;28;20067;-78
2023/03/13 00:03:55;;;;;;;26.55;4.15;;;10.30;99.90;;;-144.05;61.33;56982.66;5034548;28;20029;-77
2023/03/13 00:06:26;;;;;;;21.65;4.03;;;10.30;99.90;;;-144.05;61.35;56993.25;5054801;28;20061;-76
2023/03/13 00:08:54;;;;;;;16.02;3.40;;;10.30;99.90;;;-144.05;61.65;56976.28;5036285;28;20428;-77
2023/03/13 00:11:20;;;;;;;21.92;5.03;;;10.40;99.90;;;-144.05;61.89;56959.28;5054648;28;20029;-79
2023/03/13 00:13:46;;;;;;;23.13;3.60;;;10.30;99.90;;;-144.05;61.89;56986.91;5036432;28;20039;-77
2023/03/13 00:16:15;;;;;;;19.05;3.97;;;10.40;99.90;;;-144.05;61.47;56978.41;5037406;28;20175;-78
2023/03/13 00:18:48;;;;;;;29.08;5.05;;;10.40;99.90;;;-144.05;61.83;56982.66;5054850;28;20025;-77
2023/03/13 00:21:16;;;;;;;24.23;3.58;;;10.40;99.90;;;-144.05;62.16;56967.78;5053958;28;20032;-77
2023/03/13 00:23:42;;;;;;;21.48;4.80;;;10.40;99.90;;;-144.05;61.79;56965.66;5054273;28;20029;-76
2023/03/13 00:26:13;;;;;;;19.98;3.53;;;10.40;99.90;;;-144.05;61.90;56967.78;5036062;28;20033;-77
2023/03/13 00:28:41;;;;;;;20.05;3.97;;;10.40;99.90;;;-144.05;62.13;56978.41;5054521;28;20036;-77
2023/03/13 00:31:18;;;;;;;18.60;3.83;;;10.50;99.90;;;-144.05;62.21;56963.53;5054232;28;20033;-76
2023/03/13 00:33:56;;;;;;;16.95;3.80;;;10.50;99.90;;;-144.05;62.20;56952.91;5054792;28;20100;-77
2023/03/13 00:36:27;;;;;;;17.75;3.55;;;10.60;99.90;;;-144.05;62.23;56963.53;5055125;28;20029;-76
2023/03/13 00:38:55;;;;;;;21.90;4.28;;;10.50;99.90;;;-144.05;62.74;56961.41;5053789;28;20021;-76
2023/03/13 00:41:31;;;;;;;19.58;3.88;;;10.50;99.90;;;-144.05;63.55;56972.03;5054209;28;20131;-79
2023/03/13 00:43:57;;;;;;;24.25;4.97;;;10.40;99.90;;;-144.05;64.11;56972.03;5054390;28;20047;-77
2023/03/13 00:46:28;;;;;;;23.48;4.45;;;10.30;99.90;;;-144.05;64.46;56980.53;5054344;28;20044;-77
2023/03/13 00:48:54;;;;;;;16.17;3.45;;;10.30;99.90;;;-144.05;65.13;56974.16;5053772;28;20032;-77
2023/03/13 00:51:25;;;;;;;26.60;4.25;;;10.20;99.90;;;-144.05;66.04;56967.78;5053916;28;20033;-78
2023/03/13 00:53:59;;;;;;;21.67;4.30;;;10.20;99.90;;;-144.05;66.68;56978.41;5037890;28;20056;-77
2023/03/13 00:56:26;;;;;;;17.42;3.67;;;10.10;99.90;;;-144.05;66.07;56961.41;5053797;28;20023;-79
2023/03/13 00:58:52;;;;;;;21.52;4.78;;;10.20;99.90;;;-144.05;67.09;56952.91;5055831;28;20029;-77
2023/03/13 01:01:28;;;;;;;14.32;3.03;;;10.10;99.90;;;-144.05;67.64;56984.78;5056161;28;20116;-77
2023/03/13 01:04:07;;;;;;;;;;;10.10;99.90;;;-144.05;67.51;56974.16;5036769;28;20044;-77
2023/03/13 01:06:41;;;;;;;15.88;3.22;;;10.00;99.90;;;-144.05;67.88;56982.66;5053933;28;20386;-79
2023/03/13 01:09:14;;;;;;;20.30;4.22;;;10.10;99.90;;;-144.05;68.28;56961.41;5056433;28;20443;-76
2023/03/13 01:11:43;;;;;;;18.98;3.33;;;10.10;99.90;;;-144.05;69.13;56978.41;5055485;28;20116;-78
2023/03/13 01:14:18;;;;;;;22.63;3.78;;;10.00;99.90;;;-144.05;70.04;56967.78;5038210;28;20071;-77
2023/03/13 01:16:44;;;;;;;19.23;3.72;;;10.00;99.90;;;-144.05;70.88;56963.53;5056952;28;20377;-77
2023/03/13 01:19:14;;;;;;;22.67;4.00;;;10.00;99.90;;;-144.05;71.38;56961.41;5038891;28;20033;-77
2023/03/13 01:21:43;;;;;;;23.83;3.78;;;9.90;99.90;;;-144.05;71.86;56965.66;5055418;28;20060;-80
2023/03/13 01:24:10;;;;;;;22.60;3.70;;;10.00;99.90;;;-144.05;71.89;56976.28;5057173;28;20048;-78
2023/03/13 01:26:36;;;;;;;17.20;3.55;;;10.00;99.90;;;-144.05;72.67;56948.66;5056414;28;20103;-78
2023/03/13 01:29:02;;;;;;;15.20;4.28;;;10.00;99.90;;;-144.05;72.79;56957.16;5035803;28;20033;-78
2023/03/13 01:31:32;;;;;;;13.85;3.63;;;10.00;99.90;;;-144.05;72.71;56961.41;5036382;28;20117;-79
2023/03/13 01:34:04;;;;;;;17.75;4.10;;;10.00;99.90;;;-144.05;72.67;56989.00;5038723;28;20036;-78
2023/03/13 01:36:32;;;;;;;13.93;3.33;;;10.10;99.90;;;-144.05;72.86;56980.53;5055987;28;20444;-77
2023/03/13 01:39:00;;;;;;;19.63;4.13;;;10.00;99.90;;;-144.05;72.82;56972.03;5055739;28;20120;-78
2023/03/13 01:41:29;;;;;;;15.65;2.88;;;9.90;99.90;;;-144.05;73.85;56982.66;5055939;28;20040;-77
2023/03/13 01:43:56;;;;;;;14.95;2.97;;;10.00;99.90;;;-144.05;73.56;56986.91;5055076;28;20589;-78
2023/03/13 01:46:28;;;;;;;18.95;3.58;;;9.90;99.90;;;-144.05;73.85;56967.78;5054494;28;20120;-78
2023/03/13 01:49:34;;;;;;;15.68;3.50;;;10.00;99.90;;;-144.05;74.45;56989.00;5056832;28;20090;-77
2023/03/13 01:52:15;;;;;;;18.88;3.50;;;10.00;99.90;;;-144.05;75.90;56967.78;4976051;28;20050;-79
2023/03/13 01:55:01;;;;;;;18.83;3.67;;;9.90;99.90;;;-144.05;77.47;56980.53;4973451;28;20075;-77
2023/03/13 01:57:45;;;;;;;17.42;3.47;;;9.90;99.90;;;-144.05;77.48;56963.53;5030956;28;20485;-76
2023/03/13 02:00:23;;;;;;;25.90;4.18;;;9.90;99.90;;;-144.05;77.50;56982.66;5057958;28;20094;-79
2023/03/13 02:02:58;;;;;;;22.20;4.05;;;9.80;99.90;;;-144.05;77.86;56965.66;5054034;28;20029;-77
2023/03/13 02:05:27;;;;;;;17.70;3.85;;;9.80;99.90;;;-144.05;78.36;56982.66;5036056;28;20400;-77
2023/03/13 02:08:12;;;;;;;25.83;3.95;;;9.80;99.90;;;-144.05;79.02;56963.53;5053722;28;20102;-77
2023/03/13 02:10:52;;;;;;;24.60;3.38;;;9.80;99.90;;;-144.05;79.53;56978.41;5035463;28;20434;-78
2023/03/13 02:13:20;;;;;;;24.27;3.67;;;9.70;99.90;;;-144.05;81.05;56972.03;5035397;28;20025;-78
2023/03/13 02:15:47;;;;;;;22.52;3.50;;;9.70;99.90;;;-144.05;81.42;56963.53;5036037;28;20031;-77
2023/03/13 02:18:15;;;;;;;18.38;4.35;;;9.60;99.90;;;-144.05;82.67;56959.28;5037644;28;20434;-79
2023/03/13 02:20:41;;;;;;;17.00;3.38;;;9.60;99.90;;;-144.05;83.42;56982.66;5056750;28;20411;-78
2023/03/13 02:23:26;;;;;;;22.83;3.60;;;9.60;99.90;;;-144.05;82.82;56980.53;5055175;28;20542;-79
2023/03/13 02:25:53;;;;;;;22.20;4.30;;;9.60;99.90;;;-144.05;84.10;56961.41;5056313;28;20091;-79
2023/03/13 02:28:34;;;;;;;17.83;3.70;;;9.60;99.90;;;-144.05;84.91;56972.03;5036423;28;20090;-77
2023/03/13 02:31:01;;;;;;;19.15;4.72;;;9.50;99.90;;;-144.05;85.23;56963.53;5058322;28;20446;-80
2023/03/13 02:33:35;;;;;;;22.42;4.65;;;9.50;99.90;;;-144.05;86.13;56976.28;5037167;28;20090;-78
2023/03/13 02:36:05;;;;;;;21.65;4.20;;;9.50;99.90;;;-144.05;86.52;56984.78;5054721;28;20120;-77
2023/03/13 02:38:43;;;;;;;17.40;3.70;;;9.50;99.90;;;-144.05;86.25;56974.16;5055206;28;20052;-77
2023/03/13 02:41:12;;;;;;;24.77;4.78;;;9.50;99.90;;;-144.05;86.81;56963.53;5055583;28;20090;-76
2023/03/13 02:43:38;;;;;;;25.17;4.05;;;9.50;99.90;;;-144.05;86.77;56989.00;5054836;28;20036;-79
2023/03/13 02:46:17;;;;;;;19.17;3.53;;;9.50;99.90;;;-144.05;87.45;56961.41;5056111;28;20429;-78
2023/03/13 02:48:51;;;;;;;24.52;4.78;;;9.50;99.90;;;-144.05;87.20;56976.28;5055818;28;20063;-79
2023/03/13 02:51:39;;;;;;;19.77;3.90;;;9.60;99.90;;;-144.05;87.48;56976.28;5036925;28;20468;-79
2023/03/13 02:54:20;;;;;;;15.30;3.53;;;9.60;99.90;;;-144.05;87.67;56980.53;5035244;28;20040;-77
2023/03/13 02:56:56;;;;;;;13.73;3.58;;;9.60;99.90;;;-144.05;87.34;56984.78;5037166;28;20036;-77
2023/03/13 02:59:23;;;;;;;17.95;3.50;;;9.60;99.90;;;-144.05;87.42;56957.16;5038543;28;20083;-79
2023/03/13 03:01:51;;;;;;;16.95;3.25;;;9.70;99.90;;;-144.05;87.15;56991.13;5055779;28;20025;-76
2023/03/13 03:04:23;;;;;;;16.33;3.10;;;9.70;99.90;;;-144.05;86.49;56991.13;5054817;28;20388;-79
2023/03/13 03:06:50;;;;;;;12.82;3.20;;;9.70;99.90;;;-144.05;87.30;57001.75;5055859;28;20021;-77
2023/03/13 03:09:18;;;;;;;15.93;3.40;;;9.70;99.90;;;-144.05;87.23;56963.53;5054607;28;20036;-79
2023/03/13 03:11:46;;;;;;;15.20;3.42;;;9.80;99.90;;;-144.05;86.78;56986.91;5055450;28;20489;-77
2023/03/13 03:14:13;;;;;;;17.55;2.97;;;9.80;99.90;;;-144.05;87.12;56999.63;5037303;28;20076;-79
2023/03/13 03:16:40;;;;;;;14.15;3.03;;;9.80;99.90;;;-144.05;86.74;56982.66;5054640;28;20029;-78
2023/03/13 03:19:06;;;;;;;16.83;3.75;;;9.80;99.90;;;-144.05;87.40;56967.78;5053915;28;20206;-77
2023/03/13 03:21:34;;;;;;;19.50;3.60;;;9.80;99.90;;;-144.05;87.06;56972.03;5053564;28;20025;-79
2023/03/13 03:24:00;;;;;;;15.45;3.00;;;9.80;99.90;;;-144.05;86.87;56980.53;5034720;28;20408;-79
2023/03/13 03:26:26;;;;;;;13.48;3.33;;;9.80;99.90;;;-144.05;86.93;56942.28;5053710;28;20037;-76
2023/03/13 03:28:53;;;;;;;10.95;3.85;;;9.90;99.90;;;-144.05;87.04;56978.41;5054837;28;20029;-81
2023/03/13 03:31:18;;;;;;;16.63;2.88;;;9.90;99.90;;;-144.05;87.09;56965.66;5036818;28;20041;-77
2023/03/13 03:33:45;;;;;;;14.70;3.40;;;9.90;99.90;;;-144.05;86.92;56946.53;5056773;28;20088;-78
2023/03/13 03:36:20;;;;;;;14.07;2.67;;;9.90;99.90;;;-144.05;87.11;56972.03;5059030;28;20050;-79
2023/03/13 03:38:47;;;;;;;16.25;3.45;;;9.90;99.90;;;-144.05;87.98;56967.78;5058952;28;20404;-78
2023/03/13 03:41:15;;;;;;;9.63;2.60;;;9.90;99.90;;;-144.05;88.16;56969.91;5060307;28;20075;-78
2023/03/13 03:43:42;;;;;;;12.15;3.13;;;9.90;99.90;;;-144.05;88.47;56952.91;5058943;28;20032;-78
2023/03/13 03:46:09;;;;;;;14.05;3.10;;;9.90;99.90;;;-144.05;88.62;56989.00;5039795;28;20540;-78
2023/03/13 03:48:35;;;;;;;11.68;2.60;;;9.90;99.90;;;-144.05;88.96;56974.16;5039763;28;20029;-78
2023/03/13 03:51:01;;;;;;;8.95;2.47;;;9.90;99.90;;;-144.05;88.70;56955.03;5058919;28;20037;-78
2023/03/13 03:53:27;;;;;;;13.18;3.10;;;9.90;99.90;;;-144.05;88.40;56963.53;5059605;28;20025;-80
2023/03/13 03:55:53;;;;;;;15.40;3.72;;;9.90;99.90;;;-144.05;89.01;56969.91;5059462;28;20021;-77
2023/03/13 03:58:19;;;;;;;8.35;2.28;;;9.90;99.90;;;-144.05;88.13;56946.53;5040377;28;20510;-79
2023/03/13 04:00:47;;;;;;;12.80;2.20;;;10.00;99.90;;;-144.05;87.68;56955.03;5041313;28;20036;-78
2023/03/13 04:03:13;;;;;;;10.75;2.50;;;10.00;99.90;;;-144.05;87.95;56982.66;5061554;28;20033;-77
2023/03/13 04:05:40;;;;;;;9.75;2.05;;;10.00;99.90;;;-144.05;87.52;56942.28;5057838;28;20047;-77
2023/03/13 04:08:08;;;;;;;8.45;2.38;;;10.10;99.90;;;-144.05;87.23;56963.53;5057197;28;20051;-80
2023/03/13 04:10:34;;;;;;;9.98;2.22;;;10.20;99.90;;;-144.05;86.81;56963.53;5057133;28;20051;-77
2023/03/13 04:13:00;;;;;;;6.95;2.03;;;10.20;99.90;;;-144.05;86.65;56942.28;5060235;28;20041;-79
2023/03/13 04:15:27;;;;;;;9.70;2.08;;;10.30;99.90;;;-144.05;86.42;56948.66;5041216;28;20052;-79
2023/03/13 04:17:52;;;;;;;6.03;2.08;;;10.40;99.90;;;-144.05;85.37;56978.41;5042156;28;20025;-79
2023/03/13 04:20:18;;;;;;;9.00;2.10;;;10.40;99.90;;;-144.05;86.28;56993.25;5044504;28;20033;-77
2023/03/13 04:22:44;;;;;;;7.65;2.05;;;10.50;99.90;;;-144.05;86.20;56969.91;5059196;28;20104;-79
2023/03/13 04:25:10;;;;;;;6.30;2.00;;;10.50;99.90;;;-144.05;87.15;56974.16;5062272;28;20032;-79
2023/03/13 04:27:37;;;;;;;7.72;2.17;;;10.40;99.90;;;-144.05;87.54;56986.91;5063387;28;20033;-79
2023/03/13 04:30:03;;;;;;;6.28;1.90;;;10.40;99.90;;;-144.05;87.73;56959.28;5063326;28;20028;-78
2023/03/13 04:32:29;;;;;;;4.90;1.88;;;10.40;99.90;;;-144.05;88.02;56955.03;5062716;28;20036;-79
2023/03/13 04:34:55;;;;;;;5.18;1.60;;;10.40;99.90;;;-144.05;88.69;56961.41;5042460;28;20024;-78
2023/03/13 04:37:21;;;;;;;6.28;1.55;;;10.40;99.90;;;-144.05;89.11;56946.53;5059398;28;20029;-77
2023/03/13 04:39:47;;;;;;;6.18;1.65;;;10.30;99.90;;;-144.05;88.82;56972.03;5053623;28;20049;-77
2023/03/13 04:42:13;;;;;;;4.15;1.63;;;10.30;99.90;;;-144.05;88.81;56948.66;5054052;28;20025;-78
2023/03/13 04:44:39;;;;;;;6.68;1.50;;;10.40;99.90;;;-144.05;89.29;56955.03;5054539;28;20459;-78
2023/03/13 04:47:05;;;;;;;5.78;1.95;;;10.40;99.90;;;-144.05;89.71;56944.41;5055849;28;20059;-77
2023/03/13 04:49:31;;;;;;;6.85;2.05;;;10.40;99.90;;;-144.05;89.85;56959.28;5052837;28;20115;-78
2023/03/13 04:51:57;;;;;;;4.60;1.40;;;10.40;99.90;;;-144.05;89.34;56972.03;5058049;28;20532;-79
2023/03/13 04:54:23;;;;;;;4.95;1.80;;;10.40;99.90;;;-144.05;90.03;56967.78;5059855;28;20029;-79
2023/03/13 04:56:48;;;;;;;6.35;1.38;;;10.40;99.90;;;-144.05;89.54;56991.13;5057689;28;20029;-76
2023/03/13 04:59:15;;;;;;;6.47;1.85;;;10.40;99.90;;;-144.05;89.51;56974.16;5056501;28;20071;-78
2023/03/13 05:01:42;;;;;;;4.75;1.98;;;10.40;99.90;;;-144.05;90.21;56984.78;5058754;28;20084;-79
2023/03/13 05:04:09;;;;;;;4.05;1.58;;;10.40;99.90;;;-144.05;90.06;56963.53;5070096;28;20055;-77
2023/03/13 05:06:35;;;;;;;5.18;1.85;;;10.40;99.90;;;-144.05;90.19;56978.41;5074443;28;20013;-78
2023/03/13 05:09:03;;;;;;;4.32;1.85;;;10.40;99.90;;;-144.05;90.42;56957.16;5074669;28;20108;-78
2023/03/13 05:11:29;;;;;;;4.35;1.55;;;10.50;99.90;;;-144.05;90.31;56976.28;5056987;28;20036;-76
2023/03/13 05:13:54;;;;;;;7.40;2.53;;;10.50;99.90;;;-144.05;89.44;56959.28;5076677;28;20017;-78
2023/03/13 05:16:21;;;;;;;5.25;2.10;;;10.50;99.90;;;-144.05;89.05;56948.66;5072484;28;20340;-78
2023/03/13 05:18:46;;;;;;;4.35;2.17;;;10.60;99.90;;;-144.05;88.69;56957.16;5062600;28;20040;-79
2023/03/13 05:21:12;;;;;;;5.05;2.50;;;10.60;99.90;;;-144.05;89.01;56967.78;5059530;28;20338;-78
2023/03/13 05:23:38;;;;;;;4.85;2.08;;;10.70;99.90;;;-144.05;88.73;56980.53;5059539;28;20078;-76
2023/03/13 05:26:04;;;;;;;5.97;2.67;;;10.70;99.90;;;-144.05;88.71;56959.28;5059206;28;20036;-77
2023/03/13 05:28:31;;;;;;;4.70;2.25;;;10.80;99.90;;;-144.05;88.31;56965.66;5059698;28;20413;-77
2023/03/13 05:30:57;;;;;;;7.40;1.88;;;10.80;99.90;;;-144.05;88.32;56969.91;5059047;28;20048;-77
2023/03/13 05:33:23;;;;;;;5.05;1.85;;;10.90;99.90;;;-144.05;87.53;56965.66;5059027;28;20044;-77
2023/03/13 05:35:49;;;;;;;3.15;2.15;;;10.90;99.90;;;-144.05;87.52;56980.53;5061611;28;20037;-77
2023/03/13 05:38:14;;;;;;;4.35;2.03;;;10.90;99.90;;;-144.05;87.90;56969.91;5063301;28;20029;-79
2023/03/13 05:40:40;;;;;;;3.70;1.75;;;11.00;99.90;;;-144.05;87.00;56959.28;5066375;28;20081;-77
2023/03/13 05:43:07;;;;;;;4.07;2.10;;;11.00;99.90;;;-144.05;87.13;56967.78;5044982;28;20387;-77
2023/03/13 05:45:33;;;;;;;2.75;2.08;;;11.10;99.90;;;-144.05;86.83;56952.91;5061238;28;20029;-77
2023/03/13 05:47:59;;;;;;;4.72;1.70;;;11.10;99.90;;;-144.05;87.29;56976.28;5064290;28;20116;-77
2023/03/13 05:50:25;;;;;;;4.10;1.92;;;11.10;99.90;;;-144.05;87.53;56972.03;5061449;28;20037;-77
2023/03/13 05:52:51;;;;;;;5.93;2.30;;;11.20;99.90;;;-144.05;88.04;56955.03;5063090;28;20085;-79
2023/03/13 05:55:18;;;;;;;4.13;2.60;;;11.20;99.90;;;-144.05;88.59;56993.25;5044617;28;20033;-77
2023/03/13 05:57:47;;;;;;;7.47;3.22;;;11.20;99.90;;;-144.05;88.34;56959.28;5043378;28;20025;-79
2023/03/13 06:00:15;;;;;;;2.80;2.13;;;11.30;99.90;;;-144.05;88.33;56972.03;5061086;28;20094;-77
2023/03/13 06:02:42;;;;;;;4.20;2.47;;;11.30;99.90;;;-144.05;88.26;56929.53;5061175;28;20035;-78
2023/03/13 06:05:09;;;;;;;3.28;2.97;;;11.30;99.90;;;-144.05;88.90;56972.03;5060459;28;20276;-76
2023/03/13 06:07:36;;;;;;;5.07;3.05;;;11.40;99.90;;;-144.05;88.95;56959.28;5059228;28;20033;-77
2023/03/13 06:10:03;;;;;;;5.45;2.70;;;11.30;99.90;;;-144.05;88.51;56955.03;5057121;28;20071;-78
2023/03/13 06:12:29;;;;;;;5.28;3.17;;;11.40;99.90;;;-144.05;88.61;56950.78;5039951;28;20075;-76
2023/03/13 06:14:55;;;;;;;7.38;2.92;;;11.40;99.90;;;-144.05;89.23;56974.16;5057957;28;20028;-77
2023/03/13 06:17:21;;;;;;;5.03;2.75;;;11.50;99.90;;;-144.05;88.83;56969.91;5057825;28;20032;-78
2023/03/13 06:19:47;;;;;;;4.85;2.78;;;11.50;99.90;;;-144.05;88.20;56950.78;5058216;28;20033;-76
2023/03/13 06:22:16;;;;;;;6.13;2.80;;;11.60;99.90;;;-144.05;87.88;56944.41;5055458;28;20036;-76
2023/03/13 06:24:43;;;;;;;4.22;2.17;;;11.60;99.90;;;-144.05;87.88;56967.78;5055181;28;20043;-78
2023/03/13 06:27:10;;;;;;;3.78;2.15;;;11.60;99.90;;;-144.05;87.19;56938.03;5056583;28;20069;-78
2023/03/13 06:29:35;;;;;;;4.60;2.35;;;11.60;99.90;;;-144.05;86.97;56950.78;5036715;28;20124;-77
2023/03/13 06:32:02;;;;;;;2.63;1.70;;;11.70;99.90;;;-144.05;86.05;56959.28;5054636;28;20060;-77
2023/03/13 06:34:27;;;;;;;4.10;2.33;;;11.70;99.90;;;-144.05;86.13;56967.78;5037159;28;20396;-77
2023/03/13 06:36:53;;;;;;;4.22;1.98;;;11.80;99.90;;;-144.05;85.56;56989.00;5054594;28;20041;-77
2023/03/13 06:39:19;;;;;;;5.40;1.90;;;11.90;99.90;;;-144.05;85.08;56946.53;5054718;28;20029;-77
2023/03/13 06:41:45;;;;;;;4.00;2.53;;;12.00;99.90;;;-144.05;84.38;56967.78;5056418;28;20083;-77
2023/03/13 06:44:11;;;;;;;3.42;1.55;;;12.00;99.90;;;-144.05;84.15;56965.66;5054918;28;20020;-77
2023/03/13 06:46:37;;;;;;;3.17;1.67;;;12.10;99.90;;;-144.05;84.22;56965.66;5055959;28;20029;-78
2023/03/13 06:49:04;;;;;;;4.63;1.92;;;12.10;99.90;;;-144.05;83.75;56963.53;5054097;28;20447;-77
2023/03/13 06:51:31;;;;;;;2.33;1.50;;;12.20;99.90;;;-144.05;83.47;56955.03;5054560;28;20041;-77
2023/03/13 06:53:57;;;;;;;3.78;1.50;;;12.10;99.90;;;-144.05;83.16;56955.03;5037085;28;20033;-78
2023/03/13 06:56:23;;;;;;;4.18;1.67;;;12.20;99.90;;;-144.05;83.04;56972.03;5039713;28;20029;-77
2023/03/13 06:58:50;;;;;;;3.47;1.20;;;12.20;99.90;;;-144.05;82.53;56933.78;5057678;28;20029;-79
2023/03/13 07:01:17;;;;;;;3.75;1.48;;;12.30;99.90;;;-144.05;81.95;56940.16;5057281;28;20036;-77
2023/03/13 07:03:43;;;;;;;1.27;1.17;;;12.50;99.90;;;-144.05;81.26;56952.91;5054240;28;20122;-77
2023/03/13 07:06:11;;;;;;;2.75;1.60;;;12.60;99.90;;;-144.05;81.10;56957.16;5053279;28;20041;-76
2023/03/13 07:08:38;;;;;;;4.20;1.73;;;12.60;99.90;;;-144.05;81.10;56955.03;5053704;28;20036;-76
2023/03/13 07:11:11;;;;;;;3.47;1.60;;;12.60;99.90;;;-144.05;80.50;56974.16;5053898;28;20029;-76
2023/03/13 07:13:37;;;;;;;3.65;1.35;;;12.70;99.90;;;-144.05;79.97;56961.41;5036423;28;20028;-76
2023/03/13 07:16:11;;;;;;;3.88;1.42;;;12.70;99.90;;;-144.05;79.88;56959.28;5036849;28;20029;-77
2023/03/13 07:18:40;;;;;;;2.63;1.67;;;12.90;99.90;;;-144.05;78.95;56957.16;5036575;28;20033;-77
2023/03/13 07:21:09;;;;;;;4.72;1.73;;;12.90;99.90;;;-144.05;79.10;56974.16;5053923;28;20447;-76
2023/03/13 07:23:35;;;;;;;5.88;1.35;;;12.90;99.90;;;-144.05;78.24;56965.66;5036421;28;20450;-77
2023/03/13 07:26:15;;;;;;;4.05;1.30;;;13.00;99.90;;;-144.05;78.12;56978.41;5053454;28;20523;-77
2023/03/13 07:28:41;;;;;;;1.80;1.27;;;13.10;99.90;;;-144.05;77.77;56942.28;5052711;28;20025;-78
2023/03/13 07:31:15;;;;;;;3.40;1.33;;;13.10;99.90;;;-144.05;77.53;56957.16;5035425;28;20065;-76
2023/03/13 07:33:41;;;;;;;5.80;1.63;;;13.20;99.90;;;-144.05;77.22;56957.16;5052989;28;20369;-77
2023/03/13 07:36:08;;;;;;;2.58;1.25;;;13.30;99.90;;;-144.05;77.02;56957.16;5035237;28;20032;-78
2023/03/13 07:38:34;;;;;;;1.92;1.42;;;13.30;99.90;;;-144.05;76.35;56976.28;5054162;28;20064;-76
2023/03/13 07:41:00;;;;;;;6.15;1.30;;;13.30;99.90;;;-144.05;76.08;56955.03;5035988;28;20029;-76
2023/03/13 07:43:28;;;;;;;2.67;1.50;;;13.40;99.90;;;-144.05;75.43;56984.78;5053639;28;20213;-77
2023/03/13 07:46:03;;;;;;;2.35;1.27;;;13.50;99.90;;;-144.05;75.13;56935.91;5053731;28;20021;-77
2023/03/13 07:48:37;;;;;;;4.70;1.65;;;13.50;99.90;;;-144.05;74.83;56950.78;5053998;28;20033;-77
2023/03/13 07:51:20;;;;;;;4.15;1.17;;;13.60;99.90;;;-144.05;74.78;56963.53;5054537;28;20037;-77
2023/03/13 07:53:46;;;;;;;4.05;1.48;;;13.60;99.90;;;-144.05;74.18;56955.03;5036254;28;20021;-78
2023/03/13 07:56:17;;;;;;;4.63;1.60;;;13.70;99.90;;;-144.05;74.09;56961.41;5053913;28;20017;-77
2023/03/13 07:58:44;;;;;;;4.95;1.50;;;13.70;99.90;;;-144.05;74.11;56938.03;5053458;28;20487;-77
2023/03/13 08:01:24;;;;;;;7.68;1.63;;;13.70;99.90;;;-144.05;73.93;56974.16;5052782;28;20108;-77
2023/03/13 08:03:50;;;;;;;2.67;1.42;;;13.60;99.90;;;-144.05;73.40;56963.53;5052955;28;20060;-76
2023/03/13 08:06:24;;;;;;;4.22;1.85;;;13.60;99.90;;;-144.05;73.22;56955.03;5053430;28;20031;-76
2023/03/13 08:08:55;;;;;;;4.30;1.77;;;13.70;99.90;;;-144.05;73.22;56946.53;5053748;28;20048;-77
2023/03/13 08:11:25;;;;;;;6.65;1.80;;;13.80;99.90;;;-144.05;72.34;56972.03;5035091;28;20061;-76
2023/03/13 08:13:53;;;;;;;5.93;1.73;;;13.80;99.90;;;-144.05;72.15;56959.28;5035639;28;20025;-77
2023/03/13 08:16:32;;;;;;;3.53;1.42;;;13.80;99.90;;;-144.05;71.52;56965.66;5053828;28;20033;-76
2023/03/13 08:19:03;;;;;;;3.92;1.45;;;13.80;99.90;;;-144.05;71.59;56965.66;5052799;28;20029;-76
2023/03/13 08:21:34;;;;;;;2.95;1.60;;;13.70;99.90;;;-144.05;71.18;56952.91;5054115;28;20033;-78
2023/03/13 08:24:06;;;;;;;7.97;1.92;;;13.80;99.90;;;-144.05;71.01;56972.03;5053494;28;20098;-76
2023/03/13 08:26:36;;;;;;;3.85;1.60;;;13.90;99.90;;;-144.05;70.51;56957.16;5055255;28;20488;-74
2023/03/13 08:29:13;;;;;;;6.32;1.70;;;13.90;99.90;;;-144.05;70.44;56944.41;5055552;28;20090;-75
2023/03/13 08:31:51;;;;;;;5.85;1.83;;;13.80;99.90;;;-144.05;70.91;56961.41;5055999;28;20033;-75
2023/03/13 08:34:18;;;;;;;5.93;1.92;;;13.90;99.90;;;-144.05;70.76;56967.78;5038565;28;20341;-78
2023/03/13 08:36:44;;;;;;;5.07;1.83;;;13.90;99.90;;;-144.05;70.48;56946.53;5056832;28;20043;-76
2023/03/13 08:39:16;;;;;;;5.93;1.88;;;13.90;99.90;;;-144.05;70.12;56961.41;5039436;28;20043;-77
2023/03/13 08:41:42;;;;;;;4.78;1.58;;;14.00;99.90;;;-144.05;69.68;56961.41;5056820;28;20037;-76
2023/03/13 08:44:16;;;;;;;5.43;2.10;;;14.00;99.90;;;-144.05;69.94;56944.41;5038512;28;20032;-76
2023/03/13 08:46:48;;;;;;;6.75;2.00;;;14.00;99.90;;;-144.05;70.12;56938.03;5056414;28;20107;-78
2023/03/13 08:49:19;;;;;;;8.05;2.47;;;14.00;99.90;;;-144.05;70.26;56972.03;5054390;28;20028;-75
2023/03/13 08:51:45;;;;;;;7.22;2.30;;;14.00;99.90;;;-144.05;70.25;56944.41;5055583;28;20111;-76
2023/03/13 08:54:11;;;;;;;4.53;2.00;;;14.00;99.90;;;-144.05;70.34;56942.28;5056817;28;20057;-78
2023/03/13 08:56:37;;;;;;;4.22;1.70;;;14.00;99.90;;;-144.05;70.07;56974.16;5055925;28;20040;-75
2023/03/13 08:59:05;;;;;;;5.75;2.00;;;13.90;99.90;;;-144.05;69.95;56963.53;5056417;28;20025;-77
2023/03/13 09:01:35;;;;;;;5.50;2.05;;;14.00;99.90;;;-144.05;70.45;56980.53;5056183;28;20031;-75
2023/03/13 09:04:03;;;;;;;6.15;2.03;;;14.00;99.90;;;-144.05;70.29;56927.41;5056363;28;20033;-76
2023/03/13 09:06:29;;;;;;;6.97;2.45;;;13.90;99.90;;;-144.05;71.45;56955.03;5056477;28;20045;-75
2023/03/13 09:08:57;;;;;;;5.72;2.28;;;14.00;99.90;;;-144.05;71.30;56963.53;5039343;28;20052;-75
2023/03/13 09:11:22;;;;;;;7.18;2.05;;;14.00;99.90;;;-144.05;71.00;56963.53;5056628;28;20037;-75
2023/03/13 09:13:50;;;;;;;6.10;2.17;;;13.90;99.90;;;-144.05;71.32;56955.03;5056900;28;20112;-76
2023/03/13 09:16:22;;;;;;;7.00;1.90;;;13.90;99.90;;;-144.05;72.11;56950.78;5055646;28;20136;-77
2023/03/13 09:18:50;;;;;;;6.57;2.67;;;13.80;99.90;;;-144.05;72.02;56957.16;5056061;28;20485;-79
2023/03/13 09:21:26;;;;;;;5.00;2.00;;;13.80;99.90;;;-144.05;71.93;56967.78;5038118;28;20033;-77
2023/03/13 09:23:52;;;;;;;4.85;2.25;;;13.90;99.90;;;-144.05;71.38;56965.66;5055751;28;20046;-76
2023/03/13 09:26:20;;;;;;;6.40;2.42;;;14.00;99.90;;;-144.05;70.57;56959.28;5056129;28;20369;-77
2023/03/13 09:28:46;;;;;;;8.73;2.17;;;14.10;99.90;;;-144.05;70.61;56976.28;5038003;28;20025;-75
2023/03/13 09:31:18;;;;;;;7.35;2.45;;;14.20;99.90;;;-144.05;69.50;56961.41;5055028;28;20516;-76
2023/03/13 09:33:48;;;;;;;5.13;2.05;;;14.40;99.90;;;-144.05;68.83;56957.16;5055305;28;20044;-76
2023/03/13 09:36:16;;;;;;;9.02;2.35;;;14.70;99.90;;;-144.05;67.77;56950.78;5037038;28;20027;-77
2023/03/13 09:38:42;;;;;;;8.82;2.30;;;15.00;99.90;;;-144.05;66.96;56982.66;5037785;28;20035;-76
2023/03/13 09:41:42;;;;;;;5.63;1.90;;;15.20;99.90;;;-144.05;67.35;56942.28;5056452;28;20492;-77
2023/03/13 09:44:25;;;;;;;6.25;2.20;;;15.20;99.90;;;-144.05;66.98;56978.41;5018853;28;20044;-76
2023/03/13 09:47:20;;;;;;;6.00;2.13;;;15.10;99.90;;;-144.05;67.90;56955.03;5038078;28;20037;-76
2023/03/13 09:50:15;;;;;;;4.47;1.90;;;15.00;99.90;;;-144.05;68.57;56963.53;5037400;28;20166;-77
2023/03/13 09:52:42;;;;;;;5.20;2.13;;;15.00;99.90;;;-144.05;68.50;56959.28;5037522;28;20021;-77
2023/03/13 09:55:21;;;;;;;8.02;2.10;;;14.80;99.90;;;-144.05;71.32;56961.41;5054530;28;20025;-77
2023/03/13 09:58:07;;;;;;;6.05;2.30;;;14.60;99.90;;;-144.05;71.66;56955.03;5055880;28;20025;-75
2023/03/13 10:00:40;;;;;;;6.28;1.80;;;14.50;99.90;;;-144.05;72.28;56959.28;5038065;28;20112;-78
2023/03/13 10:03:37;;;;;;;8.48;2.45;;;14.50;99.90;;;-144.05;72.76;56946.53;5055815;28;20043;-76
2023/03/13 10:06:19;;;;;;;6.53;1.90;;;14.40;99.90;;;-144.05;73.71;56952.91;5054879;28;20090;-77
2023/03/13 10:08:45;;;;;;;5.65;2.45;;;14.30;99.90;;;-144.05;73.11;56927.41;5054717;28;20085;-77
2023/03/13 10:11:26;;;;;;;8.75;2.47;;;14.60;99.90;;;-144.05;71.89;56961.41;5055280;28;20391;-76
2023/03/13 10:14:56;;;;;;;4.07;1.70;;;14.70;99.90;;;-144.05;71.35;56946.53;5054462;28;20500;-78
2023/03/13 10:17:33;;;;;;;8.30;2.03;;;14.80;99.90;;;-144.05;70.74;56967.78;5053746;28;20017;-75